Mount Vernon, Kentucky
Current Conditions -  °F | °C
As of 3:55 PM on Tuesday 27 Jan 2015 (Local Time) from KI39 Reporting Station
Clear Clear  
Wind Chill: 25°   Ceiling: Unl
Heat Index: 32°   Visibility: 10mi
Dew Point: 16°   Wind: 8mph
Humidity: 51%   Direction: 340°NNW
Pressure: 30.06"   Gusts: NA
Location:  37.35°N, 84.34°W
Report Text: KI39 272055Z AUTO 34007KT 10SM CLR 00/M09 A3006 RMK AO2
Loading
Personal Weather Stations






























Interactive Weather Map New forecast layout! Learn more

10-Day Weather Forecast

Advertisements
Track Severe Weather on mobile